Terminal Aerodrome Forecast
Issued by NWS

Home | Current Version | Previous Version | Text Only | Print | Product List | Glossary Off
Versions: 1 2 3 4 5 6 7 8 9 10 11 12 13 14 15 16 17 18 19 20 21

000
FTUS45 KGGW 211700 RRA
TAFGDV
TAF
KGDV 211744Z 2118/2218 VRB06KT P6SM OVC040
     FM212100 20008KT P6SM -RA FEW005 OVC040
     FM220400 31015KT 4SM -SN BKN005 OVC020
     FM220800 31019KT 2SM -SN BR OVC010
      AMD LTD TO CLD VIS AND WIND=

USA.gov is the U.S. government's official web portal to all federal, state and local government web resources and services.